Latest Weather Observations for Stenhouse Bay

IDS60801

Issued at 2:35 pm CST Friday 29 August 2014 (issued every 30 minutes, with the page automatically refreshed every 10 minutes)

About weather observations | Map of weather stations | Latest weather observations for SA | Other Formats
Station Details ID: 022049 Name: STENHOUSE BAY Lat: -35.28 Lon: 136.94 Height: 42.0 m
Data from the previous 72 hours. | See also: Recent months at Stenhouse Bay
Date/Time
CST
Temp
°C
App
Temp
°C
Dew
Point
Rel
Hum
%
Delta-T
°C
Wind Press
QNH
hPa
Press
MSL
hPa
Rain
since 9 am
mm
Dir
 
Spd
km/h
Gust
km/h
Spd
kts
Gust
kts
29/02:30pm 18.5 17.8 12.0 66 3.6 E 7 13 4 7 1024.8 1024.8 0.0
29/02:29pm 19.2 18.6 12.2 64 3.9 E 7 13 4 7 1024.9 1024.9 0.0
29/02:00pm 24.3 20.7 5.1 29 9.6 N 13 22 7 12 1025.2 1025.2 0.0
29/01:30pm 24.0 20.2 5.8 31 9.2 NNW 15 22 8 12 1025.5 1025.5 0.0
29/01:00pm 23.9 19.8 6.2 32 9.1 NNW 17 24 9 13 1025.9 1026.0 0.0
29/12:30pm 23.4 19.0 6.7 34 8.6 NNW 19 24 10 13 1026.4 1026.5 0.0
29/12:00pm 22.9 18.6 7.1 36 8.1 N 19 24 10 13 1026.9 1027.0 0.0
29/11:30am 22.7 18.7 8.4 40 7.5 NNW 19 26 10 14 1027.3 1027.4 0.0
29/11:00am 22.1 17.8 7.1 38 7.7 NNW 19 26 10 14 1027.4 1027.5 0.0
29/10:30am 21.5 17.9 10.0 48 6.2 N 19 26 10 14 1027.5 1027.6 0.0
29/10:00am 20.8 18.2 10.6 52 5.6 N 15 20 8 11 1027.6 1027.7 0.0
29/09:30am 18.9 16.2 10.2 57 4.6 N 15 20 8 11 1027.8 1027.9 0.0
29/09:00am 17.2 14.8 9.9 62 3.8 N 13 19 7 10 1028.0 1028.1 0.0
29/08:30am 15.3 13.4 9.0 66 3.2 N 9 11 5 6 1027.7 1027.8 0.0
29/08:00am 13.8 11.5 7.6 66 3.1 N 9 13 5 7 1027.5 1027.6 0.0
29/07:30am 12.9 10.1 6.9 67 2.9 N 11 19 6 10 1027.2 1027.3 0.0
29/07:00am 11.8 8.9 6.7 71 2.4 N 11 15 6 8 1027.1 1027.2 0.0
29/06:30am 12.1 8.9 7.0 71 2.4 N 13 17 7 9 1026.7 1026.8 0.0
29/06:00am 12.4 9.3 7.3 71 2.5 NNE 13 17 7 9 1026.3 1026.4 0.0
29/05:30am 11.0 8.0 6.2 72 2.2 N 11 15 6 8 1026.1 1026.2 0.0
29/05:00am 10.9 7.5 6.1 72 2.2 N 13 17 7 9 1025.9 1026.0 0.0
29/04:30am 10.7 7.4 6.3 74 2.0 N 13 17 7 9 1025.8 1025.8 0.0
29/04:00am 11.1 8.6 6.5 73 2.2 N 9 11 5 6 1025.9 1026.0 0.0
29/03:30am 12.7 10.4 7.6 71 2.5 N 9 13 5 7 1026.1 1026.2 0.0
29/03:00am 13.2 11.3 9.1 76 2.1 NE 9 11 5 6 1026.6 1026.7 0.0
29/02:30am 13.0 11.1 9.1 77 2.0 NNE 9 11 5 6 1026.6 1026.7 0.0
29/02:00am 13.3 11.1 9.5 78 1.9 NE 11 13 6 7 1027.0 1027.1 0.0
29/01:30am 13.7 12.2 10.7 82 1.6 NE 9 15 5 8 1027.1 1027.2 0.0
29/01:00am 13.5 12.1 11.0 85 1.3 ENE 9 13 5 7 1027.2 1027.3 0.0
29/12:30am 13.1 11.8 11.2 88 1.0 ENE 9 13 5 7 1027.2 1027.3 0.0
29/12:00am 13.0 12.2 11.2 89 0.9 NE 6 7 3 4 1027.2 1027.3 0.0
 
Date/Time
CST
Temp
°C
App
Temp
°C
Dew
Point
Rel
Hum
%
Delta-T
°C
Wind Press
QNH
hPa
Press
MSL
hPa
Rain
since 9 am
mm
Dir
 
Spd
km/h
Gust
km/h
Spd
kts
Gust
kts
28/11:30pm 13.4 12.7 11.3 87 1.1 NE 6 7 3 4 1027.3 1027.4 0.0
28/11:00pm 13.3 12.5 11.7 90 0.9 ENE 7 13 4 7 1027.3 1027.4 0.0
28/10:30pm 13.2 12.3 11.4 89 0.9 ENE 7 9 4 5 1027.5 1027.6 0.0
28/10:00pm 13.1 11.8 11.2 88 1.0 NE 9 13 5 7 1027.6 1027.7 0.0
28/09:30pm 13.7 12.7 12.4 92 0.7 ENE 9 13 5 7 1027.7 1027.8 0.0
28/09:00pm 13.8 13.3 12.5 92 0.7 E 7 9 4 5 1027.8 1027.9 0.0
28/08:30pm 13.7 13.3 12.3 91 0.8 E 6 9 3 5 1027.8 1027.9 0.0
28/08:00pm 13.9 13.0 12.5 91 0.8 E 9 13 5 7 1027.5 1027.6 0.0
28/07:30pm 14.2 11.8 12.6 90 0.9 ESE 17 19 9 10 1027.2 1027.3 0.0
28/07:00pm 14.3 12.4 12.9 91 0.8 SE 15 19 8 10 1027.0 1027.1 0.0
28/06:30pm 14.5 13.3 12.7 89 1.0 ESE 11 15 6 8 1026.7 1026.8 0.0
28/06:00pm 15.3 14.7 11.7 79 1.9 NE 6 7 3 4 1026.4 1026.5 0.0
28/05:30pm 17.0 16.6 11.1 68 3.2 NNE 4 7 2 4 1026.5 1026.6 0.0
28/05:00pm 19.9 18.1 7.3 44 6.4 N 6 11 3 6 1026.6 1026.7 0.0
28/04:30pm 20.7 17.7 7.7 43 6.7 NNW 13 19 7 10 1026.5 1026.6 0.0
28/04:00pm 21.1 17.2 7.3 41 7.1 N 17 22 9 12 1026.3 1026.4 0.0
28/03:30pm 21.9 18.0 7.3 39 7.5 N 17 26 9 14 1026.4 1026.5 0.0
28/03:00pm 22.2 18.1 8.0 40 7.4 N 19 24 10 13 1026.5 1026.6 0.0
28/02:30pm 23.1 20.0 8.8 40 7.6 N 15 22 8 12 1026.6 1026.7 0.0
28/02:00pm 22.7 19.6 8.8 41 7.4 N 15 20 8 11 1026.7 1026.8 0.0
28/01:30pm 22.2 18.7 8.7 42 7.1 N 17 24 9 13 1026.8 1026.9 0.0
28/01:00pm 22.4 19.5 9.6 44 6.9 N 15 20 8 11 1027.1 1027.2 0.0
28/12:30pm 22.0 18.4 9.9 46 6.5 N 19 22 10 12 1027.4 1027.5 0.0
28/12:00pm 21.6 17.9 9.5 46 6.5 N 19 22 10 12 1027.8 1027.9 0.0
28/11:30am 21.3 17.6 9.5 47 6.3 N 19 24 10 13 1027.9 1028.0 0.0
28/11:00am 20.8 17.7 10.3 51 5.7 N 17 26 9 14 1028.1 1028.2 0.0
28/10:30am 20.1 16.7 10.5 54 5.2 N 19 28 10 15 1028.1 1028.2 0.0
28/10:00am 19.1 17.5 11.7 62 4.1 N 11 17 6 9 1028.4 1028.5 0.0
28/09:30am 17.0 15.3 11.1 68 3.2 N 11 17 6 9 1028.5 1028.6 0.0
28/09:00am 15.2 13.2 10.2 72 2.6 N 11 13 6 7 1028.3 1028.4 0.2
28/08:30am 13.4 12.0 9.6 78 1.9 N 7 11 4 6 1028.1 1028.2 0.2
28/08:00am 11.9 10.2 8.4 79 1.7 N 7 11 4 6 1027.8 1027.9 0.2
28/07:30am 10.8 8.3 8.0 83 1.4 NNE 11 11 6 6 1027.4 1027.5 0.2
28/07:00am 10.5 8.5 8.8 89 0.8 NNE 9 11 5 6 1027.4 1027.5 0.2
28/06:30am 10.4 8.4 8.8 90 0.8 NNE 9 11 5 6 1027.1 1027.2 0.2
28/06:00am 11.4 9.7 9.8 90 0.8 NE 9 11 5 6 1027.0 1027.1 0.2
28/05:30am 11.6 10.6 10.2 91 0.7 ENE 6 9 3 5 1026.9 1027.0 0.2
28/05:00am 11.5 10.4 10.1 91 0.7 ENE 6 9 3 5 1026.9 1027.0 0.2
28/04:30am 11.4 10.3 10.1 92 0.7 ENE 6 7 3 4 1026.7 1026.8 0.2
28/04:00am 11.4 10.3 10.0 91 0.7 NE 6 7 3 4 1026.6 1026.7 0.2
28/03:30am 12.0 10.6 10.9 93 0.6 ENE 9 13 5 7 1026.6 1026.7 0.2
28/03:00am 12.2 11.3 11.3 94 0.5 ENE 7 9 4 5 1026.9 1027.0 0.2
28/02:30am 12.0 11.2 11.1 94 0.5 E 6 7 3 4 1027.1 1027.2 0.2
28/02:00am 12.0 11.2 10.9 93 0.6 E 6 9 3 5 1027.3 1027.4 0.2
28/01:30am 12.0 10.9 10.7 92 0.7 E 7 9 4 5 1027.3 1027.4 0.0
28/01:00am 12.1 11.0 10.7 91 0.7 E 7 9 4 5 1027.5 1027.6 0.0
28/12:30am 12.0 10.9 10.7 92 0.7 ENE 7 11 4 6 1027.5 1027.6 0.0
28/12:00am 12.4 10.8 11.5 94 0.5 E 11 13 6 7 1027.8 1027.9 0.0
 
Date/Time
CST
Temp
°C
App
Temp
°C
Dew
Point
Rel
Hum
%
Delta-T
°C
Wind Press
QNH
hPa
Press
MSL
hPa
Rain
since 9 am
mm
Dir
 
Spd
km/h
Gust
km/h
Spd
kts
Gust
kts
27/11:30pm 12.4 11.2 11.6 95 0.4 E 9 13 5 7 1027.9 1028.0 0.0
27/11:00pm 12.3 11.1 11.5 95 0.4 ESE 9 11 5 6 1027.9 1028.0 0.0
27/10:30pm 12.2 10.5 11.3 94 0.5 E 11 11 6 6 1027.9 1028.0 0.0
27/10:00pm 12.7 11.9 11.8 94 0.5 E 7 9 4 5 1027.7 1027.8 0.0
27/09:30pm 12.3 11.4 11.5 95 0.4 E 7 7 4 4 1027.8 1027.9 0.0
27/09:00pm 12.7 12.0 11.9 95 0.4 SE 7 7 4 4 1027.6 1027.7 0.0
27/08:30pm 12.5 11.7 11.7 95 0.4 SE 7 7 4 4 1027.4 1027.5 0.0
27/08:00pm 12.7 12.1 11.8 94 0.5 SE 6 7 3 4 1027.3 1027.4 0.0
27/07:30pm 12.7 12.1 11.8 94 0.5 SSE 6 7 3 4 1027.0 1027.1 0.0
27/07:00pm 12.6 11.7 11.5 93 0.6 SE 7 9 4 5 1026.6 1026.7 0.0
27/06:30pm 12.7 11.8 11.3 91 0.7 SSE 7 9 4 5 1026.2 1026.3 0.0
27/06:00pm 13.3 12.5 11.7 90 0.8 SSE 7 9 4 5 1026.1 1026.2 0.0
27/05:30pm 14.1 13.0 12.0 87 1.1 SSE 9 9 5 5 1025.9 1026.0 0.0
27/05:00pm 14.9 13.9 12.4 85 1.4 S 9 11 5 6 1025.8 1025.8 0.0
27/04:30pm 15.4 14.0 12.2 81 1.7 S 11 11 6 6 1025.6 1025.6 0.0
27/04:00pm 15.9 15.0 12.5 80 1.9 SSW 9 13 5 7 1025.5 1025.5 0.0
27/03:30pm 16.3 15.4 12.5 78 2.1 SSW 9 13 5 7 1025.6 1025.6 0.0
27/03:00pm 16.5 15.6 12.5 77 2.2 S 9 13 5 7 1025.7 1025.7 0.0
27/02:30pm 17.1 16.0 11.8 71 2.9 E 9 13 5 7 1025.4 1025.4 0.0
27/02:00pm 16.7 15.9 11.8 73 2.7 E 7 11 4 6 1025.3 1025.3 0.0
27/01:30pm 16.7 15.3 12.3 75 2.4 E 11 15 6 8 1025.4 1025.4 0.0
27/01:00pm 16.3 14.8 11.9 75 2.4 E 11 13 6 7 1025.8 1025.8 0.0
27/12:30pm 17.8 16.1 9.9 60 4.2 ESE 9 11 5 6 1026.2 1026.3 0.0
27/12:00pm 17.4 15.9 9.3 59 4.2 ESE 7 9 4 5 1026.5 1026.6 0.0
27/11:30am 15.8 15.0 11.0 73 2.6 E 6 9 3 5 1026.9 1027.0 0.0
27/11:00am 15.4 14.3 10.6 73 2.5 E 7 7 4 4 1027.1 1027.2 0.0
27/10:30am 14.8 13.7 9.8 72 2.6 E 6 7 3 4 1027.5 1027.6 0.0
27/10:00am 14.7 13.9 9.7 72 2.6 E 4 6 2 3 1027.4 1027.5 0.0
27/09:30am 14.1 12.8 9.1 72 2.5 ENE 6 7 3 4 1027.4 1027.5 0.0
27/09:00am 13.1 11.9 9.5 79 1.8 NE 6 6 3 3 1027.3 1027.4 0.2
27/08:30am 12.1 10.9 9.5 84 1.3 NE 6 9 3 5 1026.9 1027.0 0.2
27/08:00am 11.7 10.6 9.9 89 0.9 NE 6 7 3 4 1026.6 1026.7 0.2
27/07:30am 10.8 9.6 9.4 91 0.7 NE 6 7 3 4 1026.1 1026.2 0.2
27/07:00am 10.8 9.5 9.9 94 0.5 ENE 7 9 4 5 1025.6 1025.6 0.2
27/06:30am 11.5 10.6 11.2 98 0.2 ENE 7 13 4 7 1025.4 1025.4 0.2
27/06:00am 11.4 9.7 11.1 98 0.2 ENE 11 13 6 7 1024.8 1024.8 0.2
27/05:30am 10.7 9.4 10.1 96 0.3 NE 7 9 4 5 1024.9 1024.9 0.2
27/05:00am 11.2 10.3 10.6 96 0.3 ENE 6 7 3 4 1024.9 1024.9 0.2
27/04:30am 11.3 10.4 10.5 95 0.4 ENE 6 7 3 4 1024.7 1024.7 0.2
27/04:00am 11.7 10.3 10.9 95 0.4 NE 9 13 5 7 1024.5 1024.5 0.2
27/03:30am 12.4 9.3 11.6 95 0.4 ENE 19 22 10 12 1024.3 1024.3 0.0
27/03:00am 12.4 10.1 11.8 96 0.3 ENE 15 19 8 10 1024.3 1024.3 0.0
27/02:30am 12.4 10.5 11.8 96 0.3 ENE 13 19 7 10 1024.5 1024.5 0.0
27/02:00am 12.6 9.5 11.7 94 0.5 ENE 19 26 10 14 1024.4 1024.4 0.0
27/01:30am 12.4 9.2 11.1 92 0.7 ENE 19 24 10 13 1024.7 1024.7 0.0
27/01:00am 11.9 9.6 10.6 92 0.7 E 13 17 7 9 1025.0 1025.0 0.0
27/12:30am 11.4 9.4 10.0 91 0.7 ESE 11 13 6 7 1025.3 1025.3 0.0
27/12:00am 11.8 10.2 10.2 90 0.8 E 9 11 5 6 1025.2 1025.2 0.0
 
Date/Time
CST
Temp
°C
App
Temp
°C
Dew
Point
Rel
Hum
%
Delta-T
°C
Wind Press
QNH
hPa
Press
MSL
hPa
Rain
since 9 am
mm
Dir
 
Spd
km/h
Gust
km/h
Spd
kts
Gust
kts
26/11:30pm 12.0 9.3 10.4 90 0.8 E 15 19 8 10 1025.1 1025.1 0.0
26/11:00pm 11.9 10.1 10.8 93 0.6 ENE 11 15 6 8 1025.2 1025.2 0.0
26/10:30pm 12.2 8.9 10.9 92 0.7 ENE 19 22 10 12 1025.1 1025.1 0.0
26/10:00pm 12.4 9.4 10.8 90 0.8 E 17 22 9 12 1025.1 1025.1 0.0
26/09:30pm 12.6 9.5 10.3 86 1.2 ENE 17 24 9 13 1025.0 1025.0 0.0
26/09:00pm 12.2 9.3 9.6 84 1.3 E 15 20 8 11 1025.0 1025.0 0.0
26/08:30pm 11.7 8.9 10.1 90 0.8 E 15 17 8 9 1025.0 1025.0 0.0
26/08:00pm 11.6 10.0 10.2 91 0.7 SE 9 11 5 6 1025.2 1025.2 0.0
26/07:30pm 11.6 10.0 10.2 91 0.7 S 9 11 5 6 1025.5 1025.5 0.0
26/07:00pm 11.8 10.6 10.2 90 0.8 ESE 7 9 4 5 1024.8 1024.8 0.0
26/06:30pm 12.1 10.5 10.3 89 0.9 ESE 9 11 5 6 1024.5 1024.5 0.0
26/06:00pm 12.4 10.8 10.1 86 1.2 E 9 11 5 6 1024.3 1024.3 0.0
26/05:30pm 13.3 12.2 10.5 83 1.5 E 7 11 4 6 1024.2 1024.2 0.0
26/05:00pm 13.9 12.4 10.5 80 1.8 E 9 13 5 7 1024.1 1024.1 0.0
26/04:30pm 14.5 12.7 10.7 78 2.0 E 11 15 6 8 1024.1 1024.1 0.0
26/04:00pm 15.1 13.3 10.7 75 2.3 E 11 15 6 8 1024.2 1024.2 0.0
26/03:30pm 15.3 13.1 10.9 75 2.3 E 13 17 7 9 1024.2 1024.2 0.0
26/03:00pm 15.4 12.9 11.0 75 2.3 E 15 19 8 10 1024.3 1024.3 0.0

Other Formats:

Comma delimited format used in spreadsheet applications
http://www.bom.gov.au/fwo/IDS60801/IDS60801.95806.axf

JavaScript Object Notation format (JSON) in row-major order
http://www.bom.gov.au/fwo/IDS60801/IDS60801.95806.json